createdAt,value
2022-12-13T00:01:52.098Z,14.48
2022-12-13T00:04:23.840Z,13.93
2022-12-13T00:06:54.613Z,14.05
2022-12-13T00:09:23.383Z,13.70
2022-12-13T00:11:52.334Z,13.60
2022-12-13T00:14:20.931Z,13.00
2022-12-13T00:16:50.554Z,13.15
2022-12-13T00:19:21.450Z,12.25
2022-12-13T00:21:53.080Z,11.57
2022-12-13T00:24:21.719Z,12.30
2022-12-13T00:26:50.300Z,12.55
2022-12-13T00:29:18.921Z,11.82
2022-12-13T00:32:00.038Z,12.93
2022-12-13T00:34:29.457Z,12.93
2022-12-13T00:37:00.350Z,13.02
2022-12-13T00:39:29.443Z,14.75
2022-12-13T00:41:58.410Z,14.30
2022-12-13T00:44:27.148Z,13.30
2022-12-13T00:46:55.378Z,12.80
2022-12-13T00:49:24.354Z,13.02
2022-12-13T00:51:53.290Z,10.48
2022-12-13T00:54:23.386Z,12.73
2022-12-13T00:56:52.596Z,12.20
2022-12-13T00:59:21.459Z,11.80
2022-12-13T01:01:50.041Z,11.68
2022-12-13T01:04:19.148Z,12.40
2022-12-13T01:06:49.986Z,14.30
2022-12-13T01:09:20.878Z,13.57
2022-12-13T01:11:51.183Z,12.63
2022-12-13T01:14:21.421Z,13.40
2022-12-13T01:16:50.011Z,13.95
2022-12-13T01:19:19.344Z,10.90
2022-12-13T01:21:47.924Z,12.53
2022-12-13T01:24:20.671Z,12.80
2022-12-13T01:26:50.703Z,11.68
2022-12-13T01:29:19.697Z,13.07
2022-12-13T01:31:48.466Z,11.35
2022-12-13T01:34:18.977Z,10.57
2022-12-13T01:36:48.929Z,12.85
2022-12-13T01:39:20.361Z,13.52
2022-12-13T01:42:00.050Z,14.63
2022-12-13T01:44:59.979Z,15.35
2022-12-13T01:47:31.208Z,14.80
2022-12-13T01:50:01.629Z,14.10
2022-12-13T01:55:03.169Z,13.60
2022-12-13T01:57:34.717Z,13.30
2022-12-13T02:00:05.992Z,14.38
2022-12-13T02:02:36.170Z,14.77
2022-12-13T02:05:07.278Z,13.50
2022-12-13T02:07:36.659Z,13.65
2022-12-13T02:10:08.833Z,12.20
2022-12-13T02:12:39.851Z,11.90
2022-12-13T02:15:12.635Z,12.75
2022-12-13T02:17:56.662Z,10.63
2022-12-13T02:20:38.470Z,12.80
2022-12-13T02:23:32.017Z,12.15
2022-12-13T02:26:33.914Z,13.68
2022-12-13T02:29:14.493Z,13.27
2022-12-13T02:32:03.414Z,13.25
2022-12-13T02:34:37.937Z,13.18
2022-12-13T02:37:18.265Z,14.15
2022-12-13T02:39:52.349Z,13.45
2022-12-13T02:42:23.139Z,14.27
2022-12-13T02:44:53.893Z,14.60
2022-12-13T02:47:25.676Z,13.60
2022-12-13T02:49:57.440Z,13.85
2022-12-13T02:52:27.653Z,13.75
2022-12-13T02:54:57.693Z,13.52
2022-12-13T02:57:31.664Z,12.98
2022-12-13T03:00:05.206Z,14.70
2022-12-13T03:02:43.639Z,11.65
2022-12-13T03:05:36.417Z,12.65
2022-12-13T03:08:16.067Z,14.27
2022-12-13T03:10:46.292Z,12.65
2022-12-13T03:16:04.272Z,11.85
2022-12-13T03:18:35.337Z,12.73
2022-12-13T03:21:09.052Z,13.57
2022-12-13T03:23:38.950Z,13.70
2022-12-13T03:26:11.088Z,15.68
2022-12-13T03:28:40.009Z,14.73
2022-12-13T03:31:09.057Z,15.37
2022-12-13T03:33:39.762Z,16.02
2022-12-13T03:36:09.396Z,15.73
2022-12-13T03:38:38.462Z,16.27
2022-12-13T03:41:09.441Z,18.08
2022-12-13T03:43:37.888Z,17.73
2022-12-13T03:46:06.969Z,16.83
2022-12-13T03:48:35.699Z,16.42
2022-12-13T03:51:06.052Z,15.40
2022-12-13T03:53:35.296Z,19.25
2022-12-13T03:56:05.618Z,17.30
2022-12-13T03:58:37.721Z,15.82
2022-12-13T04:01:08.726Z,16.48
2022-12-13T04:03:38.308Z,17.17
2022-12-13T04:06:09.533Z,15.77
2022-12-13T04:08:38.901Z,18.42
2022-12-13T04:11:22.366Z,15.63
2022-12-13T04:13:50.737Z,17.45
2022-12-13T04:16:19.576Z,17.83
2022-12-13T04:18:48.343Z,15.23
2022-12-13T04:21:18.442Z,16.92
2022-12-13T04:26:15.564Z,18.85
2022-12-13T04:28:45.271Z,17.77
2022-12-13T04:31:15.730Z,18.40
2022-12-13T04:33:44.448Z,20.30
2022-12-13T04:36:31.572Z,18.50
2022-12-13T04:39:03.613Z,16.52
2022-12-13T04:41:51.702Z,16.75
2022-12-13T04:44:27.324Z,17.00
2022-12-13T04:46:56.154Z,15.30
2022-12-13T04:49:30.343Z,18.70
2022-12-13T04:52:01.536Z,19.58
2022-12-13T04:54:36.650Z,16.52
2022-12-13T04:57:07.878Z,17.42
2022-12-13T04:59:36.982Z,18.92
2022-12-13T05:02:06.937Z,19.70
2022-12-13T05:04:35.556Z,18.85
2022-12-13T05:07:04.832Z,17.45
2022-12-13T05:09:35.132Z,17.00
2022-12-13T05:14:32.530Z,16.02
2022-12-13T05:17:01.724Z,17.98
2022-12-13T05:19:31.737Z,15.90
2022-12-13T05:24:32.385Z,16.67
2022-12-13T05:29:52.076Z,15.23
2022-12-13T05:32:23.786Z,15.60
2022-12-13T05:34:52.599Z,15.50
2022-12-13T05:37:21.835Z,14.90
2022-12-13T05:39:50.458Z,18.83
2022-12-13T05:42:20.542Z,17.48
2022-12-13T05:47:18.908Z,13.63
2022-12-13T05:49:47.178Z,14.70
2022-12-13T05:52:19.277Z,16.20
2022-12-13T05:54:48.016Z,12.95
2022-12-13T05:57:16.755Z,15.02
2022-12-13T05:59:46.909Z,14.85
2022-12-13T06:04:49.924Z,15.43
2022-12-13T06:07:18.686Z,14.98
2022-12-13T06:09:47.357Z,16.08
2022-12-13T06:12:32.059Z,14.75
2022-12-13T06:15:02.999Z,16.25
2022-12-13T06:20:01.078Z,13.27
2022-12-13T06:22:29.535Z,15.65
2022-12-13T06:24:58.206Z,15.98
2022-12-13T06:27:26.855Z,14.15
2022-12-13T06:29:57.672Z,12.75
2022-12-13T06:32:31.080Z,13.88
2022-12-13T06:37:28.616Z,14.00
2022-12-13T06:39:57.404Z,12.05
2022-12-13T06:42:26.132Z,12.57
2022-12-13T06:44:55.633Z,11.40
2022-12-13T06:47:31.982Z,10.18
2022-12-13T06:50:05.339Z,12.38
2022-12-13T06:52:35.117Z,12.60
2022-12-13T06:55:04.118Z,10.70
2022-12-13T06:57:33.821Z,13.57
2022-12-13T07:00:05.213Z,12.35
2022-12-13T07:02:34.323Z,11.52
2022-12-13T07:05:04.633Z,11.63
2022-12-13T07:07:32.923Z,11.65
2022-12-13T07:10:01.739Z,12.15
2022-12-13T07:12:30.414Z,13.00
2022-12-13T07:14:59.096Z,12.13
2022-12-13T07:17:32.750Z,12.20
2022-12-13T07:20:08.124Z,13.38
2022-12-13T07:22:45.171Z,12.15
2022-12-13T07:25:27.987Z,11.07
2022-12-13T07:28:03.292Z,11.52
2022-12-13T07:30:33.647Z,10.13
2022-12-13T07:35:37.414Z,11.55
2022-12-13T07:38:08.800Z,11.57
2022-12-13T07:40:40.465Z,10.60
2022-12-13T07:43:10.599Z,12.38
2022-12-13T07:48:08.972Z,11.57
2022-12-13T07:50:39.078Z,12.07
2022-12-13T07:53:08.736Z,12.10
2022-12-13T07:55:37.884Z,10.57
2022-12-13T07:58:10.901Z,11.65
2022-12-13T08:00:40.189Z,12.68
2022-12-13T08:03:12.208Z,11.70
2022-12-13T08:06:02.039Z,13.52
2022-12-13T08:08:31.914Z,11.80
2022-12-13T08:11:03.309Z,14.23
2022-12-13T08:13:32.988Z,13.50
2022-12-13T08:16:02.493Z,13.40
2022-12-13T08:18:31.877Z,13.82
2022-12-13T08:21:01.959Z,13.68
2022-12-13T08:23:32.036Z,13.13
2022-12-13T08:26:01.545Z,13.73
2022-12-13T08:28:31.006Z,11.90
2022-12-13T08:31:05.177Z,13.32
2022-12-13T08:33:35.249Z,11.35
2022-12-13T08:38:45.365Z,11.50
2022-12-13T08:41:14.710Z,13.30
2022-12-13T08:43:43.446Z,12.73
2022-12-13T08:46:12.309Z,13.38
2022-12-13T08:48:44.472Z,13.30
2022-12-13T08:51:24.451Z,11.90
2022-12-13T08:54:10.623Z,12.35
2022-12-13T08:56:43.813Z,12.68
2022-12-13T08:59:12.683Z,13.15
2022-12-13T09:01:44.410Z,13.00
2022-12-13T09:04:13.119Z,11.77
2022-12-13T09:06:44.943Z,12.98
2022-12-13T09:09:13.982Z,13.02
2022-12-13T09:11:42.789Z,13.05
2022-12-13T09:14:13.974Z,13.57
2022-12-13T09:16:42.568Z,13.43
2022-12-13T09:19:25.769Z,11.50
2022-12-13T09:22:02.653Z,12.35
2022-12-13T09:24:36.539Z,10.90
2022-12-13T09:27:09.154Z,11.15
2022-12-13T09:29:40.335Z,11.30
2022-12-13T09:32:09.000Z,11.73
2022-12-13T09:34:37.492Z,13.10
2022-12-13T09:37:09.207Z,12.65
2022-12-13T09:42:10.592Z,10.90
2022-12-13T09:44:46.543Z,12.73
2022-12-13T09:47:22.821Z,11.80
2022-12-13T09:49:53.827Z,12.18
2022-12-13T09:52:25.543Z,11.70
2022-12-13T09:54:56.153Z,10.93
2022-12-13T09:57:31.563Z,11.38
2022-12-13T10:00:04.672Z,11.20
2022-12-13T10:02:43.736Z,11.15
2022-12-13T10:05:22.213Z,10.45
2022-12-13T10:07:54.471Z,12.43
2022-12-13T10:10:23.516Z,11.93
2022-12-13T10:12:56.992Z,10.45
2022-12-13T10:15:26.650Z,12.15
2022-12-13T10:17:56.084Z,10.98
2022-12-13T10:20:29.035Z,10.10
2022-12-13T10:23:31.504Z,11.23
2022-12-13T10:25:54.771Z,11.13
2022-12-13T10:28:33.883Z,12.05
2022-12-13T10:31:02.963Z,11.00
2022-12-13T10:33:34.210Z,12.77
2022-12-13T10:36:05.384Z,12.45
2022-12-13T10:38:38.686Z,12.30
2022-12-13T10:41:30.562Z,9.60
2022-12-13T10:44:23.026Z,12.27
2022-12-13T10:47:06.346Z,12.63
2022-12-13T10:49:40.436Z,14.48
2022-12-13T10:52:30.856Z,13.32
2022-12-13T10:55:22.751Z,13.15
2022-12-13T10:57:52.750Z,12.68
2022-12-13T11:00:33.387Z,11.65
2022-12-13T11:03:02.153Z,12.82
2022-12-13T11:05:33.741Z,13.40
2022-12-13T11:08:16.831Z,11.90
2022-12-13T11:10:46.849Z,12.75
2022-12-13T11:13:34.251Z,12.68
2022-12-13T11:16:03.249Z,9.73
2022-12-13T11:18:36.607Z,11.10
2022-12-13T11:21:07.953Z,11.38
2022-12-13T11:23:39.692Z,12.85
2022-12-13T11:26:11.730Z,12.30
2022-12-13T11:29:00.338Z,11.65
2022-12-13T11:31:32.818Z,11.45
2022-12-13T11:34:07.590Z,10.75
2022-12-13T11:36:43.919Z,12.75
2022-12-13T11:39:18.926Z,12.20
2022-12-13T11:41:55.505Z,12.40
2022-12-13T11:44:29.568Z,13.15
2022-12-13T11:46:59.873Z,13.43
2022-12-13T11:49:36.715Z,12.57
2022-12-13T11:52:11.033Z,13.35
2022-12-13T11:54:49.465Z,13.57
2022-12-13T11:57:28.763Z,13.43
2022-12-13T12:00:02.901Z,11.17
2022-12-13T12:02:35.870Z,13.18
2022-12-13T12:05:07.719Z,12.93
2022-12-13T12:07:58.364Z,13.75
2022-12-13T12:10:32.259Z,12.43
2022-12-13T12:13:07.322Z,12.90
2022-12-13T12:15:42.092Z,13.82
2022-12-13T12:18:15.680Z,10.13
2022-12-13T12:20:57.087Z,14.05
2022-12-13T12:23:44.389Z,14.48
2022-12-13T12:26:16.302Z,13.50
2022-12-13T12:31:27.511Z,11.48
2022-12-13T12:34:03.097Z,14.15
2022-12-13T12:36:42.119Z,14.98
2022-12-13T12:39:35.834Z,13.65
2022-12-13T12:42:21.055Z,13.57
2022-12-13T12:45:04.357Z,16.05
2022-12-13T12:48:29.717Z,15.00
2022-12-13T12:50:37.920Z,14.70
2022-12-13T12:53:24.716Z,16.13
2022-12-13T12:56:00.691Z,14.82
2022-12-13T12:58:35.927Z,15.85
2022-12-13T13:01:16.463Z,15.35
2022-12-13T13:03:45.860Z,13.60
2022-12-13T13:06:18.807Z,14.48
2022-12-13T13:08:55.316Z,13.63
2022-12-13T13:11:26.332Z,16.35
2022-12-13T13:14:08.318Z,15.32
2022-12-13T13:16:40.560Z,14.43
2022-12-13T13:19:44.622Z,17.67
2022-12-13T13:22:32.192Z,15.52
2022-12-13T13:25:23.167Z,18.38
2022-12-13T13:27:52.888Z,16.85
2022-12-13T13:30:23.499Z,17.40
2022-12-13T13:32:54.488Z,20.20
2022-12-13T13:35:53.785Z,19.25
2022-12-13T13:38:52.241Z,19.50
2022-12-13T13:41:56.201Z,18.67
2022-12-13T13:45:10.613Z,18.30
2022-12-13T13:47:41.108Z,16.67
2022-12-13T13:51:06.485Z,18.80
2022-12-13T13:54:07.112Z,18.63
2022-12-13T13:56:50.230Z,18.77
2022-12-13T13:59:59.075Z,17.23
2022-12-13T14:03:00.538Z,17.77
2022-12-13T14:05:58.172Z,16.80
2022-12-13T14:08:38.046Z,16.77
2022-12-13T14:11:24.742Z,16.63
2022-12-13T14:14:31.186Z,19.27
2022-12-13T14:17:32.836Z,16.73
2022-12-13T14:20:23.750Z,16.55
2022-12-13T14:22:58.207Z,19.05
2022-12-13T14:25:59.905Z,16.13
2022-12-13T14:28:38.303Z,16.77
2022-12-13T14:31:21.472Z,18.23
2022-12-13T14:33:53.682Z,17.17
2022-12-13T14:36:29.098Z,16.80
2022-12-13T14:39:02.411Z,20.35
2022-12-13T14:41:31.492Z,20.00
2022-12-13T14:47:01.071Z,19.83
2022-12-13T14:49:31.156Z,19.27
2022-12-13T14:52:03.562Z,21.77
2022-12-13T14:54:36.805Z,21.40
2022-12-13T14:57:06.153Z,19.15
2022-12-13T14:59:34.888Z,20.53
2022-12-13T15:02:06.776Z,19.95
2022-12-13T15:04:38.713Z,18.75
2022-12-13T15:07:09.581Z,18.40
2022-12-13T15:09:40.648Z,20.75
2022-12-13T15:12:23.456Z,20.55
2022-12-13T15:14:59.878Z,18.88
2022-12-13T15:17:33.063Z,20.67
2022-12-13T15:20:30.192Z,19.73
2022-12-13T15:23:06.163Z,20.20
2022-12-13T15:25:38.851Z,20.50
2022-12-13T15:28:08.126Z,23.80
2022-12-13T15:30:37.173Z,18.90
2022-12-13T15:33:10.480Z,22.95
2022-12-13T15:35:40.232Z,22.05
2022-12-13T15:38:12.561Z,22.90
2022-12-13T15:40:45.140Z,23.67
2022-12-13T15:43:16.812Z,24.75
2022-12-13T15:45:47.648Z,26.33
2022-12-13T15:48:26.922Z,23.92
2022-12-13T15:51:13.733Z,21.33
2022-12-13T15:54:07.504Z,23.38
2022-12-13T15:56:37.686Z,23.05
2022-12-13T15:59:07.798Z,25.10
2022-12-13T16:01:37.253Z,23.80
2022-12-13T16:04:07.690Z,24.52
2022-12-13T16:06:36.611Z,24.83
2022-12-13T16:09:08.013Z,23.70
2022-12-13T16:11:40.608Z,25.55
2022-12-13T16:14:28.638Z,22.33
2022-12-13T16:16:57.646Z,21.42
2022-12-13T16:19:27.700Z,18.87
2022-12-13T16:21:56.396Z,24.55
2022-12-13T16:24:26.261Z,24.77
2022-12-13T16:26:54.881Z,25.88
2022-12-13T16:29:23.581Z,24.98
2022-12-13T16:31:54.859Z,27.05
2022-12-13T16:34:28.165Z,26.30
2022-12-13T16:36:59.645Z,26.20
2022-12-13T16:39:28.338Z,27.05
2022-12-13T16:41:57.130Z,26.13
2022-12-13T16:44:31.968Z,30.08
2022-12-13T16:47:17.243Z,26.77
2022-12-13T16:49:51.080Z,26.77
2022-12-13T16:52:22.104Z,26.08
2022-12-13T16:54:52.914Z,27.80
2022-12-13T16:57:21.730Z,24.25
2022-12-13T16:59:50.303Z,24.70
2022-12-13T17:02:19.496Z,24.33
2022-12-13T17:04:48.950Z,25.08
2022-12-13T17:07:19.827Z,23.73
2022-12-13T17:09:49.701Z,26.35
2022-12-13T17:12:18.720Z,25.90
2022-12-13T17:14:47.458Z,24.08
2022-12-13T17:17:17.898Z,27.48
2022-12-13T17:19:46.411Z,27.23
2022-12-13T17:22:15.101Z,28.33
2022-12-13T17:24:45.163Z,24.55
2022-12-13T17:27:14.403Z,29.05
2022-12-13T17:29:43.156Z,28.77
2022-12-13T17:32:11.802Z,30.08
2022-12-13T17:34:40.159Z,29.55
2022-12-13T17:37:10.743Z,28.30
2022-12-13T17:39:39.652Z,28.38
2022-12-13T17:42:09.844Z,33.63
2022-12-13T17:44:39.094Z,36.03
2022-12-13T17:47:07.766Z,36.17
2022-12-13T17:49:36.433Z,35.03
2022-12-13T17:52:05.274Z,29.55
2022-12-13T17:54:34.074Z,30.50
2022-12-13T17:57:02.941Z,30.00
2022-12-13T17:59:35.017Z,35.70
2022-12-13T18:02:05.863Z,35.88
2022-12-13T18:04:34.247Z,37.30
2022-12-13T18:07:02.958Z,37.53
2022-12-13T18:09:31.753Z,37.05
2022-12-13T18:12:00.445Z,37.60
2022-12-13T18:14:29.631Z,35.33
2022-12-13T18:17:00.928Z,38.63
2022-12-13T18:19:32.018Z,38.28
2022-12-13T18:22:01.426Z,37.20
2022-12-13T18:24:29.981Z,40.13
2022-12-13T18:26:58.852Z,40.15
2022-12-13T18:29:27.656Z,40.25
2022-12-13T18:31:55.983Z,39.53
2022-12-13T18:34:26.381Z,43.58
2022-12-13T18:39:23.616Z,38.90
2022-12-13T18:41:53.836Z,39.70
2022-12-13T18:44:22.775Z,40.92
2022-12-13T18:46:51.724Z,40.95
2022-12-13T18:49:20.401Z,34.30
2022-12-13T18:51:50.509Z,41.67
2022-12-13T18:54:19.167Z,40.90
2022-12-13T18:56:47.919Z,43.42
2022-12-13T18:59:16.545Z,43.85
2022-12-13T19:01:44.974Z,39.42
2022-12-13T19:04:15.467Z,40.15
2022-12-13T19:06:44.067Z,46.53
2022-12-13T19:09:14.115Z,47.10
2022-12-13T19:11:42.967Z,44.92
2022-12-13T19:14:11.661Z,45.83
2022-12-13T19:16:39.934Z,48.03
2022-12-13T19:19:09.525Z,48.13
2022-12-13T19:21:38.243Z,43.45
2022-12-13T19:24:10.984Z,47.03
2022-12-13T19:26:41.248Z,47.63
2022-12-13T19:29:09.985Z,41.47
2022-12-13T19:31:38.545Z,40.80
2022-12-13T19:34:07.283Z,44.35
2022-12-13T19:36:35.952Z,42.70
2022-12-13T19:39:04.987Z,41.58
2022-12-13T19:41:34.079Z,42.08
2022-12-13T19:44:05.081Z,42.58
2022-12-13T19:46:33.689Z,43.90
2022-12-13T19:49:02.395Z,38.70
2022-12-13T19:51:37.501Z,43.60
2022-12-13T19:54:07.910Z,39.60
2022-12-13T19:56:36.652Z,42.05
2022-12-13T19:59:06.706Z,41.95
2022-12-13T20:01:35.030Z,39.92
2022-12-13T20:04:05.366Z,44.53
2022-12-13T20:06:34.357Z,42.65
2022-12-13T20:09:03.020Z,43.20
2022-12-13T20:11:32.140Z,43.22
2022-12-13T20:14:00.789Z,46.40
2022-12-13T20:16:30.608Z,51.28
2022-12-13T20:19:00.767Z,56.05
2022-12-13T20:23:58.958Z,48.63
2022-12-13T20:26:29.548Z,48.20
2022-12-13T20:28:58.450Z,41.15
2022-12-13T20:31:31.586Z,48.95
2022-12-13T20:34:02.351Z,48.28
2022-12-13T20:36:31.933Z,44.10
2022-12-13T20:39:02.253Z,40.75
2022-12-13T20:41:32.420Z,44.80
2022-12-13T20:46:31.915Z,40.85
2022-12-13T20:49:03.527Z,42.75
2022-12-13T20:51:33.377Z,42.33
2022-12-13T20:54:02.130Z,43.38
2022-12-13T20:56:34.452Z,42.65
2022-12-13T20:59:03.574Z,43.28
2022-12-13T21:01:36.205Z,45.10
2022-12-13T21:04:07.024Z,42.38
2022-12-13T21:06:37.838Z,44.28
2022-12-13T21:09:07.046Z,44.03
2022-12-13T21:11:37.329Z,47.13
2022-12-13T21:14:11.158Z,45.60
2022-12-13T21:16:44.652Z,47.10
2022-12-13T21:19:15.644Z,47.22
2022-12-13T21:21:44.524Z,44.35
2022-12-13T21:24:14.959Z,32.45
2022-12-13T21:26:43.665Z,44.75
2022-12-13T21:29:12.875Z,42.67
2022-12-13T21:31:44.124Z,45.45
2022-12-13T21:34:18.186Z,46.67
2022-12-13T21:36:48.534Z,38.00
2022-12-13T21:39:18.790Z,41.60
2022-12-13T21:41:48.192Z,47.00
2022-12-13T21:44:18.469Z,47.05
2022-12-13T21:49:37.464Z,47.55
2022-12-13T21:52:06.500Z,46.63
2022-12-13T21:54:35.189Z,46.35
2022-12-13T21:57:21.361Z,44.00
2022-12-13T21:59:50.059Z,45.60
2022-12-13T22:02:20.351Z,44.58
2022-12-13T22:07:19.704Z,44.87
2022-12-13T22:09:49.812Z,45.00
2022-12-13T22:12:21.721Z,44.10
2022-12-13T22:14:50.881Z,45.33
2022-12-13T22:17:29.717Z,44.47
2022-12-13T22:20:02.196Z,45.10
2022-12-13T22:22:30.977Z,45.15
2022-12-13T22:24:59.701Z,45.63
2022-12-13T22:27:28.377Z,48.83
2022-12-13T22:29:58.263Z,48.97
2022-12-13T22:32:30.829Z,48.90
2022-12-13T22:34:59.189Z,48.70
2022-12-13T22:37:28.186Z,46.67
2022-12-13T22:39:56.909Z,49.60
2022-12-13T22:42:26.029Z,48.38
2022-12-13T22:44:54.649Z,35.33
2022-12-13T22:47:23.302Z,49.00
2022-12-13T22:49:52.967Z,49.13
2022-12-13T22:52:21.906Z,49.10
2022-12-13T22:54:50.658Z,50.53
2022-12-13T22:57:19.474Z,50.83
2022-12-13T22:59:48.140Z,50.05
2022-12-13T23:02:16.993Z,50.90
2022-12-13T23:04:45.583Z,50.78
2022-12-13T23:07:15.678Z,48.22
2022-12-13T23:09:44.401Z,52.35
2022-12-13T23:12:30.837Z,52.20
2022-12-13T23:14:59.706Z,51.80
2022-12-13T23:17:28.379Z,52.65
2022-12-13T23:19:56.687Z,49.63
2022-12-13T23:22:27.300Z,52.83
2022-12-13T23:24:55.988Z,48.95
2022-12-13T23:27:25.580Z,47.95
2022-12-13T23:29:54.194Z,47.83
2022-12-13T23:32:23.117Z,49.03
2022-12-13T23:34:51.531Z,49.45
2022-12-13T23:37:20.143Z,51.78
2022-12-13T23:39:50.775Z,49.67
2022-12-13T23:42:19.387Z,48.13
2022-12-13T23:44:48.235Z,46.08
2022-12-13T23:47:16.874Z,45.88
2022-12-13T23:49:45.115Z,44.03
2022-12-13T23:52:16.999Z,44.85
2022-12-13T23:54:45.635Z,45.45
2022-12-13T23:57:15.705Z,51.20
